Terminal Aerodrome Forecast
Issued by NWS Sterling, VA

Current Version | Previous Version | Graphics & Text | Print | Product List | Glossary On
Versions: 1 2 3 4 5 6 7 8 9 10 11 12 13 14 15 16
501
FTUS41 KLWX 121124
TAFMRB
TAF
KMRB 121124Z 1212/1312 VRB03KT P6SM BKN130
     FM121500 27010G17KT P6SM BKN060
     FM121800 29015G27KT P6SM VCSH BKN060
     FM122100 30017G31KT P6SM VCSH BKN060=

USA.gov is the U.S. government's official web portal to all federal, state and local government web resources and services.